Pagrindinis puslapis
METAR-TAF:

METAR-TAF

Oro uostai :

Odesa, Ukraina

platuma: 46-26N, ilguma: 030-46E, Aukštis: 42 m

Dabartinis oras

Ataskaita buvo paskelbta 26 minutes, ne 04:30 UTC
Vėjas 8 kt iš Šiaurės
Temperatūra -2°C
Drėgmė 80%
Slėgis 1024 hPa
Matomumas 10 km arba daugiau
nėra debesų žemiau 1500 m ir nėra kamuolinių lietaus debesų

METAR: UKOO 220430Z 36004MPS CAVOK M02/M05 Q1024 R34/090060 NOSIG

Laikas: 06:56 (04:56 UTC)

Prognozė

Ataskaita buvo paskelbta 5 valandos ir 51 minutes, ne 23:05 UTC
Prognozė galioja nuo 22 metu 00 UTC su 22 metu 24 UTC
Vėjas 6 kt iš Šiaurės/Šiaurės Rytų
Matomumas: 2100 m
Išsisklaidę debesys ne aukštis 400 ft
Su prošvaistėmis ne aukštis 700 ft
rūkana
Tikimybė 40% :
Laikinai
nuo 22 metu 00 UTC su 22 metu 06 UTC
Matomumas: 0300 m
ne aukštis 200 ft
įšaldymas rūko
Tapsmas
nuo 22 metu 18 UTC su 22 metu 19 UTC
Vėjas 6 kt iš Pietų

TAF: UKOO 212305Z 2200/2224 02003MPS 2100 BR SCT004 BKN007 TX06/2212Z TNM04/2204Z PROB40 TEMPO 2200/2206 0300 FZFG VV002 BECMG 2218/2219 18003MPS

Orai ataskaitas ir orų prognozės (METAR, TAF).

turimą stotys yra geltonos ir raudonos taškus žemėlapyje.

Perkelti pele per norėdami pamatyti stoties vardą.

Tada spustelėkite, norėdami matyti oro stebėjimo ir prognozės.

Norėdami pakeisti žemėlapį: spustelėkite ant žalios mygtukų su juodo kryžiaus žemyn,; žalią mygtuką su brūkšneliu, jei norite nutolinti; arba žalių rodyklių gretimoms žemėlapius.


METAR-TAF: